sensor_id;sensor_type;location;lat;lon;timestamp;P1;durP1;ratioP1;P2;durP2;ratioP2
74851;SDS011;63400;50.650;6.832;2023-11-21T00:01:15;8.43;;;3.65;;
74851;SDS011;63400;50.650;6.832;2023-11-21T00:03:40;10.63;;;3.47;;
74851;SDS011;63400;50.650;6.832;2023-11-21T00:06:06;10.80;;;3.47;;
74851;SDS011;63400;50.650;6.832;2023-11-21T00:08:34;8.05;;;3.28;;
74851;SDS011;63400;50.650;6.832;2023-11-21T00:11:00;7.07;;;3.40;;
74851;SDS011;63400;50.650;6.832;2023-11-21T00:13:26;9.45;;;3.28;;
74851;SDS011;63400;50.650;6.832;2023-11-21T00:15:51;9.15;;;3.45;;
74851;SDS011;63400;50.650;6.832;2023-11-21T00:18:17;11.88;;;4.07;;
74851;SDS011;63400;50.650;6.832;2023-11-21T00:20:42;11.70;;;3.92;;
74851;SDS011;63400;50.650;6.832;2023-11-21T00:23:08;10.98;;;3.72;;
74851;SDS011;63400;50.650;6.832;2023-11-21T00:25:34;10.82;;;3.95;;
74851;SDS011;63400;50.650;6.832;2023-11-21T00:27:59;10.90;;;3.75;;
74851;SDS011;63400;50.650;6.832;2023-11-21T00:30:26;12.40;;;4.90;;
74851;SDS011;63400;50.650;6.832;2023-11-21T00:32:53;12.38;;;4.15;;
74851;SDS011;63400;50.650;6.832;2023-11-21T00:35:20;12.63;;;4.07;;
74851;SDS011;63400;50.650;6.832;2023-11-21T00:37:46;12.68;;;4.00;;
74851;SDS011;63400;50.650;6.832;2023-11-21T00:40:11;15.30;;;4.95;;
74851;SDS011;63400;50.650;6.832;2023-11-21T00:42:37;16.30;;;4.75;;
74851;SDS011;63400;50.650;6.832;2023-11-21T00:45:03;14.35;;;4.90;;
74851;SDS011;63400;50.650;6.832;2023-11-21T00:47:28;15.27;;;4.90;;
74851;SDS011;63400;50.650;6.832;2023-11-21T00:49:54;19.25;;;6.50;;
74851;SDS011;63400;50.650;6.832;2023-11-21T00:52:19;16.55;;;5.25;;
74851;SDS011;63400;50.650;6.832;2023-11-21T00:54:45;18.77;;;6.20;;
74851;SDS011;63400;50.650;6.832;2023-11-21T00:57:10;17.73;;;6.20;;
74851;SDS011;63400;50.650;6.832;2023-11-21T00:59:37;21.35;;;5.57;;
74851;SDS011;63400;50.650;6.832;2023-11-21T01:02:02;17.50;;;6.63;;
74851;SDS011;63400;50.650;6.832;2023-11-21T01:04:29;16.10;;;6.65;;
74851;SDS011;63400;50.650;6.832;2023-11-21T01:06:56;14.68;;;5.65;;
74851;SDS011;63400;50.650;6.832;2023-11-21T01:09:22;15.60;;;5.28;;
74851;SDS011;63400;50.650;6.832;2023-11-21T01:11:47;14.15;;;5.22;;
74851;SDS011;63400;50.650;6.832;2023-11-21T01:14:13;15.15;;;5.47;;
74851;SDS011;63400;50.650;6.832;2023-11-21T01:16:38;15.88;;;4.93;;
74851;SDS011;63400;50.650;6.832;2023-11-21T01:19:04;11.63;;;4.40;;
74851;SDS011;63400;50.650;6.832;2023-11-21T01:21:29;12.40;;;4.45;;
74851;SDS011;63400;50.650;6.832;2023-11-21T01:23:55;12.52;;;4.32;;
74851;SDS011;63400;50.650;6.832;2023-11-21T01:26:21;9.68;;;3.92;;
74851;SDS011;63400;50.650;6.832;2023-11-21T01:28:46;10.55;;;4.13;;
74851;SDS011;63400;50.650;6.832;2023-11-21T01:31:14;13.10;;;4.20;;
74851;SDS011;63400;50.650;6.832;2023-11-21T01:33:40;10.52;;;3.97;;
74851;SDS011;63400;50.650;6.832;2023-11-21T01:36:05;12.77;;;3.83;;
74851;SDS011;63400;50.650;6.832;2023-11-21T01:38:31;10.02;;;4.07;;
74851;SDS011;63400;50.650;6.832;2023-11-21T01:40:58;14.35;;;4.10;;
74851;SDS011;63400;50.650;6.832;2023-11-21T01:43:25;10.93;;;3.28;;
74851;SDS011;63400;50.650;6.832;2023-11-21T01:45:51;10.45;;;3.58;;
74851;SDS011;63400;50.650;6.832;2023-11-21T01:48:17;14.05;;;3.17;;
74851;SDS011;63400;50.650;6.832;2023-11-21T01:50:43;10.20;;;4.03;;
74851;SDS011;63400;50.650;6.832;2023-11-21T01:53:10;14.95;;;4.22;;
74851;SDS011;63400;50.650;6.832;2023-11-21T01:55:38;14.43;;;4.25;;
74851;SDS011;63400;50.650;6.832;2023-11-21T01:58:04;12.02;;;4.18;;
74851;SDS011;63400;50.650;6.832;2023-11-21T02:00:29;14.63;;;4.38;;
74851;SDS011;63400;50.650;6.832;2023-11-21T02:02:56;10.40;;;4.20;;
74851;SDS011;63400;50.650;6.832;2023-11-21T02:05:21;12.02;;;4.25;;
74851;SDS011;63400;50.650;6.832;2023-11-21T02:07:47;11.77;;;4.38;;
74851;SDS011;63400;50.650;6.832;2023-11-21T02:10:13;13.95;;;4.50;;
74851;SDS011;63400;50.650;6.832;2023-11-21T02:12:42;11.55;;;4.18;;
74851;SDS011;63400;50.650;6.832;2023-11-21T02:15:12;14.88;;;4.53;;
74851;SDS011;63400;50.650;6.832;2023-11-21T02:17:51;13.50;;;4.07;;
74851;SDS011;63400;50.650;6.832;2023-11-21T02:20:17;12.82;;;4.68;;
74851;SDS011;63400;50.650;6.832;2023-11-21T02:22:43;12.25;;;4.53;;
74851;SDS011;63400;50.650;6.832;2023-11-21T02:25:14;13.80;;;5.13;;
74851;SDS011;63400;50.650;6.832;2023-11-21T02:27:40;16.15;;;5.00;;
74851;SDS011;63400;50.650;6.832;2023-11-21T02:30:05;14.32;;;4.80;;
74851;SDS011;63400;50.650;6.832;2023-11-21T02:34:59;16.38;;;6.03;;
74851;SDS011;63400;50.650;6.832;2023-11-21T02:37:27;17.48;;;5.15;;
74851;SDS011;63400;50.650;6.832;2023-11-21T02:39:52;15.45;;;5.57;;
74851;SDS011;63400;50.650;6.832;2023-11-21T02:42:18;16.70;;;5.88;;
74851;SDS011;63400;50.650;6.832;2023-11-21T02:44:43;17.15;;;5.80;;
74851;SDS011;63400;50.650;6.832;2023-11-21T02:47:09;13.50;;;5.70;;
74851;SDS011;63400;50.650;6.832;2023-11-21T02:49:34;15.40;;;5.63;;
74851;SDS011;63400;50.650;6.832;2023-11-21T02:52:01;12.45;;;5.18;;
74851;SDS011;63400;50.650;6.832;2023-11-21T02:54:26;11.65;;;4.88;;
74851;SDS011;63400;50.650;6.832;2023-11-21T02:56:52;12.98;;;4.65;;
74851;SDS011;63400;50.650;6.832;2023-11-21T02:59:17;12.07;;;4.88;;
74851;SDS011;63400;50.650;6.832;2023-11-21T03:01:44;14.13;;;5.97;;
74851;SDS011;63400;50.650;6.832;2023-11-21T03:04:10;14.02;;;5.45;;
74851;SDS011;63400;50.650;6.832;2023-11-21T03:06:36;17.10;;;5.30;;
74851;SDS011;63400;50.650;6.832;2023-11-21T03:09:01;16.33;;;6.05;;
74851;SDS011;63400;50.650;6.832;2023-11-21T03:11:27;12.38;;;5.40;;
74851;SDS011;63400;50.650;6.832;2023-11-21T03:13:52;18.83;;;6.25;;
74851;SDS011;63400;50.650;6.832;2023-11-21T03:16:18;14.73;;;6.05;;
74851;SDS011;63400;50.650;6.832;2023-11-21T03:18:44;18.15;;;5.90;;
74851;SDS011;63400;50.650;6.832;2023-11-21T03:21:09;16.98;;;6.38;;
74851;SDS011;63400;50.650;6.832;2023-11-21T03:23:35;16.58;;;6.15;;
74851;SDS011;63400;50.650;6.832;2023-11-21T03:26:01;11.93;;;5.38;;
74851;SDS011;63400;50.650;6.832;2023-11-21T03:28:26;18.17;;;6.57;;
74851;SDS011;63400;50.650;6.832;2023-11-21T03:30:53;18.38;;;6.63;;
74851;SDS011;63400;50.650;6.832;2023-11-21T03:33:18;15.48;;;5.25;;
74851;SDS011;63400;50.650;6.832;2023-11-21T03:35:44;17.08;;;6.47;;
74851;SDS011;63400;50.650;6.832;2023-11-21T03:38:09;13.80;;;4.95;;
74851;SDS011;63400;50.650;6.832;2023-11-21T03:40:35;13.23;;;5.20;;
74851;SDS011;63400;50.650;6.832;2023-11-21T03:43:00;12.82;;;5.25;;
74851;SDS011;63400;50.650;6.832;2023-11-21T03:45:26;12.60;;;4.97;;
74851;SDS011;63400;50.650;6.832;2023-11-21T03:47:51;12.15;;;4.65;;
74851;SDS011;63400;50.650;6.832;2023-11-21T03:50:17;13.95;;;4.32;;
74851;SDS011;63400;50.650;6.832;2023-11-21T03:52:42;9.75;;;3.42;;
74851;SDS011;63400;50.650;6.832;2023-11-21T03:55:08;11.65;;;4.07;;
74851;SDS011;63400;50.650;6.832;2023-11-21T03:57:33;12.35;;;3.80;;
74851;SDS011;63400;50.650;6.832;2023-11-21T03:59:59;10.10;;;3.70;;
74851;SDS011;63400;50.650;6.832;2023-11-21T04:02:24;10.88;;;3.38;;
74851;SDS011;63400;50.650;6.832;2023-11-21T04:04:53;10.90;;;3.72;;
74851;SDS011;63400;50.650;6.832;2023-11-21T04:07:18;11.70;;;4.32;;
74851;SDS011;63400;50.650;6.832;2023-11-21T04:09:44;10.35;;;3.85;;
74851;SDS011;63400;50.650;6.832;2023-11-21T04:12:09;10.60;;;3.42;;
74851;SDS011;63400;50.650;6.832;2023-11-21T04:14:35;10.10;;;3.45;;
74851;SDS011;63400;50.650;6.832;2023-11-21T04:17:00;12.07;;;3.88;;
74851;SDS011;63400;50.650;6.832;2023-11-21T04:19:26;9.60;;;3.42;;
74851;SDS011;63400;50.650;6.832;2023-11-21T04:21:51;12.77;;;4.38;;
74851;SDS011;63400;50.650;6.832;2023-11-21T04:24:17;11.20;;;4.25;;
74851;SDS011;63400;50.650;6.832;2023-11-21T04:26:43;11.30;;;4.38;;
74851;SDS011;63400;50.650;6.832;2023-11-21T04:29:09;11.02;;;4.13;;
74851;SDS011;63400;50.650;6.832;2023-11-21T04:31:34;12.35;;;4.15;;
74851;SDS011;63400;50.650;6.832;2023-11-21T04:33:59;13.50;;;4.63;;
74851;SDS011;63400;50.650;6.832;2023-11-21T04:36:25;12.40;;;4.13;;
74851;SDS011;63400;50.650;6.832;2023-11-21T04:38:50;14.63;;;5.43;;
74851;SDS011;63400;50.650;6.832;2023-11-21T04:41:16;12.55;;;4.40;;
74851;SDS011;63400;50.650;6.832;2023-11-21T04:43:41;15.30;;;5.00;;
74851;SDS011;63400;50.650;6.832;2023-11-21T04:46:07;12.90;;;5.28;;
74851;SDS011;63400;50.650;6.832;2023-11-21T04:48:33;15.82;;;4.80;;
74851;SDS011;63400;50.650;6.832;2023-11-21T04:50:58;16.08;;;5.82;;
74851;SDS011;63400;50.650;6.832;2023-11-21T04:53:24;13.75;;;5.93;;
74851;SDS011;63400;50.650;6.832;2023-11-21T04:55:49;13.05;;;5.22;;
74851;SDS011;63400;50.650;6.832;2023-11-21T04:58:14;14.50;;;5.57;;
74851;SDS011;63400;50.650;6.832;2023-11-21T05:00:40;15.70;;;6.18;;
74851;SDS011;63400;50.650;6.832;2023-11-21T05:03:06;15.95;;;5.07;;
74851;SDS011;63400;50.650;6.832;2023-11-21T05:05:32;16.25;;;5.32;;
74851;SDS011;63400;50.650;6.832;2023-11-21T05:07:59;17.25;;;5.38;;
74851;SDS011;63400;50.650;6.832;2023-11-21T05:10:24;16.85;;;6.40;;
74851;SDS011;63400;50.650;6.832;2023-11-21T05:12:50;14.32;;;4.63;;
74851;SDS011;63400;50.650;6.832;2023-11-21T05:15:16;17.05;;;6.47;;
74851;SDS011;63400;50.650;6.832;2023-11-21T05:17:44;15.80;;;5.68;;
74851;SDS011;63400;50.650;6.832;2023-11-21T05:20:11;17.95;;;5.68;;
74851;SDS011;63400;50.650;6.832;2023-11-21T05:27:29;16.15;;;5.88;;
74851;SDS011;63400;50.650;6.832;2023-11-21T05:29:56;17.08;;;5.68;;
74851;SDS011;63400;50.650;6.832;2023-11-21T05:32:22;14.57;;;5.53;;
74851;SDS011;63400;50.650;6.832;2023-11-21T05:34:51;18.52;;;5.72;;
74851;SDS011;63400;50.650;6.832;2023-11-21T05:37:17;15.95;;;5.68;;
74851;SDS011;63400;50.650;6.832;2023-11-21T05:39:43;17.05;;;5.80;;
74851;SDS011;63400;50.650;6.832;2023-11-21T05:42:09;18.02;;;5.53;;
74851;SDS011;63400;50.650;6.832;2023-11-21T05:44:36;17.88;;;6.32;;
74851;SDS011;63400;50.650;6.832;2023-11-21T05:47:02;14.25;;;5.00;;
74851;SDS011;63400;50.650;6.832;2023-11-21T05:49:28;14.32;;;5.07;;
74851;SDS011;63400;50.650;6.832;2023-11-21T05:51:54;16.52;;;5.28;;
74851;SDS011;63400;50.650;6.832;2023-11-21T05:54:20;16.17;;;5.78;;
74851;SDS011;63400;50.650;6.832;2023-11-21T05:56:46;14.65;;;5.53;;
74851;SDS011;63400;50.650;6.832;2023-11-21T05:59:12;15.32;;;6.03;;
74851;SDS011;63400;50.650;6.832;2023-11-21T06:01:37;19.13;;;5.93;;
74851;SDS011;63400;50.650;6.832;2023-11-21T06:04:04;16.75;;;5.75;;
74851;SDS011;63400;50.650;6.832;2023-11-21T06:06:30;17.17;;;5.53;;
74851;SDS011;63400;50.650;6.832;2023-11-21T06:08:56;15.05;;;5.63;;
74851;SDS011;63400;50.650;6.832;2023-11-21T06:11:21;17.38;;;6.40;;
74851;SDS011;63400;50.650;6.832;2023-11-21T06:13:47;18.20;;;5.53;;
74851;SDS011;63400;50.650;6.832;2023-11-21T06:16:13;15.88;;;5.32;;
74851;SDS011;63400;50.650;6.832;2023-11-21T06:18:41;20.08;;;6.20;;
74851;SDS011;63400;50.650;6.832;2023-11-21T06:21:09;17.50;;;5.50;;
74851;SDS011;63400;50.650;6.832;2023-11-21T06:23:34;17.45;;;6.05;;
74851;SDS011;63400;50.650;6.832;2023-11-21T06:26:00;18.85;;;5.57;;
74851;SDS011;63400;50.650;6.832;2023-11-21T06:28:25;16.58;;;5.93;;
74851;SDS011;63400;50.650;6.832;2023-11-21T06:30:51;19.10;;;5.55;;
74851;SDS011;63400;50.650;6.832;2023-11-21T06:33:18;17.42;;;6.00;;
74851;SDS011;63400;50.650;6.832;2023-11-21T06:35:43;14.70;;;4.97;;
74851;SDS011;63400;50.650;6.832;2023-11-21T06:38:09;16.77;;;5.85;;
74851;SDS011;63400;50.650;6.832;2023-11-21T06:40:35;14.82;;;5.07;;
74851;SDS011;63400;50.650;6.832;2023-11-21T06:43:00;15.30;;;4.97;;
74851;SDS011;63400;50.650;6.832;2023-11-21T06:45:26;17.92;;;5.80;;
74851;SDS011;63400;50.650;6.832;2023-11-21T06:47:51;17.27;;;6.13;;
74851;SDS011;63400;50.650;6.832;2023-11-21T06:50:17;16.60;;;6.05;;
74851;SDS011;63400;50.650;6.832;2023-11-21T06:52:42;20.13;;;5.57;;
74851;SDS011;63400;50.650;6.832;2023-11-21T06:55:08;14.05;;;5.45;;
74851;SDS011;63400;50.650;6.832;2023-11-21T06:57:34;19.13;;;6.22;;
74851;SDS011;63400;50.650;6.832;2023-11-21T07:00:00;16.20;;;5.78;;
74851;SDS011;63400;50.650;6.832;2023-11-21T07:02:26;14.98;;;5.63;;
74851;SDS011;63400;50.650;6.832;2023-11-21T07:04:51;17.38;;;5.70;;
74851;SDS011;63400;50.650;6.832;2023-11-21T07:07:17;13.82;;;5.72;;
74851;SDS011;63400;50.650;6.832;2023-11-21T07:09:43;15.27;;;5.10;;
74851;SDS011;63400;50.650;6.832;2023-11-21T07:12:09;17.45;;;5.95;;
74851;SDS011;63400;50.650;6.832;2023-11-21T07:14:36;17.63;;;5.18;;
74851;SDS011;63400;50.650;6.832;2023-11-21T07:17:04;16.75;;;5.45;;
74851;SDS011;63400;50.650;6.832;2023-11-21T07:19:29;17.73;;;5.20;;
74851;SDS011;63400;50.650;6.832;2023-11-21T07:21:55;16.52;;;5.40;;
74851;SDS011;63400;50.650;6.832;2023-11-21T07:24:21;17.95;;;5.57;;
74851;SDS011;63400;50.650;6.832;2023-11-21T07:26:47;18.73;;;5.97;;
74851;SDS011;63400;50.650;6.832;2023-11-21T07:29:13;22.42;;;6.15;;
74851;SDS011;63400;50.650;6.832;2023-11-21T07:31:38;19.40;;;6.78;;
74851;SDS011;63400;50.650;6.832;2023-11-21T07:34:04;17.50;;;6.03;;
74851;SDS011;63400;50.650;6.832;2023-11-21T07:36:30;16.15;;;6.57;;
74851;SDS011;63400;50.650;6.832;2023-11-21T07:38:56;15.95;;;5.63;;
74851;SDS011;63400;50.650;6.832;2023-11-21T07:41:22;17.80;;;5.25;;
74851;SDS011;63400;50.650;6.832;2023-11-21T07:43:47;12.82;;;4.68;;
74851;SDS011;63400;50.650;6.832;2023-11-21T07:46:12;15.20;;;4.43;;
74851;SDS011;63400;50.650;6.832;2023-11-21T07:48:38;14.18;;;5.32;;
74851;SDS011;63400;50.650;6.832;2023-11-21T07:51:04;16.88;;;5.10;;
74851;SDS011;63400;50.650;6.832;2023-11-21T07:53:30;15.93;;;5.47;;
74851;SDS011;63400;50.650;6.832;2023-11-21T07:55:56;15.40;;;5.03;;
74851;SDS011;63400;50.650;6.832;2023-11-21T07:58:22;16.27;;;5.63;;
74851;SDS011;63400;50.650;6.832;2023-11-21T08:00:49;14.82;;;5.28;;
74851;SDS011;63400;50.650;6.832;2023-11-21T08:03:15;17.52;;;6.45;;
74851;SDS011;63400;50.650;6.832;2023-11-21T08:05:41;14.98;;;4.95;;
74851;SDS011;63400;50.650;6.832;2023-11-21T08:08:06;12.95;;;5.38;;
74851;SDS011;63400;50.650;6.832;2023-11-21T08:10:32;16.95;;;6.07;;
74851;SDS011;63400;50.650;6.832;2023-11-21T08:12:58;15.57;;;5.25;;
74851;SDS011;63400;50.650;6.832;2023-11-21T08:15:23;16.00;;;5.57;;
74851;SDS011;63400;50.650;6.832;2023-11-21T08:17:49;14.80;;;5.00;;
74851;SDS011;63400;50.650;6.832;2023-11-21T08:20:14;14.48;;;5.10;;
74851;SDS011;63400;50.650;6.832;2023-11-21T08:22:43;16.42;;;5.35;;
74851;SDS011;63400;50.650;6.832;2023-11-21T08:25:09;15.93;;;5.97;;
74851;SDS011;63400;50.650;6.832;2023-11-21T08:27:40;14.63;;;4.88;;
74851;SDS011;63400;50.650;6.832;2023-11-21T08:30:05;14.80;;;5.07;;
74851;SDS011;63400;50.650;6.832;2023-11-21T08:32:32;13.43;;;4.70;;
74851;SDS011;63400;50.650;6.832;2023-11-21T08:34:58;11.18;;;4.40;;
74851;SDS011;63400;50.650;6.832;2023-11-21T08:37:26;13.57;;;4.40;;
74851;SDS011;63400;50.650;6.832;2023-11-21T08:39:52;15.75;;;5.03;;
74851;SDS011;63400;50.650;6.832;2023-11-21T08:42:18;15.27;;;4.82;;
74851;SDS011;63400;50.650;6.832;2023-11-21T08:44:44;17.35;;;4.60;;
74851;SDS011;63400;50.650;6.832;2023-11-21T08:47:10;14.70;;;4.28;;
74851;SDS011;63400;50.650;6.832;2023-11-21T08:49:35;15.77;;;4.60;;
74851;SDS011;63400;50.650;6.832;2023-11-21T08:52:00;13.88;;;4.82;;
74851;SDS011;63400;50.650;6.832;2023-11-21T08:54:26;17.13;;;5.18;;
74851;SDS011;63400;50.650;6.832;2023-11-21T08:56:52;14.82;;;5.13;;
74851;SDS011;63400;50.650;6.832;2023-11-21T08:59:20;14.60;;;5.40;;
74851;SDS011;63400;50.650;6.832;2023-11-21T09:01:46;14.63;;;5.05;;
74851;SDS011;63400;50.650;6.832;2023-11-21T09:04:12;15.52;;;5.05;;
74851;SDS011;63400;50.650;6.832;2023-11-21T09:06:38;14.95;;;5.32;;
74851;SDS011;63400;50.650;6.832;2023-11-21T09:09:04;13.95;;;5.10;;
74851;SDS011;63400;50.650;6.832;2023-11-21T09:11:31;18.40;;;4.60;;
74851;SDS011;63400;50.650;6.832;2023-11-21T09:14:00;18.13;;;5.80;;
74851;SDS011;63400;50.650;6.832;2023-11-21T09:16:26;19.10;;;6.07;;
74851;SDS011;63400;50.650;6.832;2023-11-21T09:18:51;15.13;;;5.57;;
74851;SDS011;63400;50.650;6.832;2023-11-21T09:21:17;13.52;;;5.60;;
74851;SDS011;63400;50.650;6.832;2023-11-21T09:23:44;16.73;;;5.78;;
74851;SDS011;63400;50.650;6.832;2023-11-21T09:26:09;15.38;;;5.57;;
74851;SDS011;63400;50.650;6.832;2023-11-21T09:28:35;13.73;;;5.07;;
74851;SDS011;63400;50.650;6.832;2023-11-21T09:31:03;15.07;;;5.78;;
74851;SDS011;63400;50.650;6.832;2023-11-21T09:33:33;18.35;;;5.38;;
74851;SDS011;63400;50.650;6.832;2023-11-21T09:35:59;12.85;;;4.95;;
74851;SDS011;63400;50.650;6.832;2023-11-21T09:38:24;15.32;;;5.30;;
74851;SDS011;63400;50.650;6.832;2023-11-21T09:40:50;12.63;;;4.90;;
74851;SDS011;63400;50.650;6.832;2023-11-21T09:43:17;13.77;;;5.38;;
74851;SDS011;63400;50.650;6.832;2023-11-21T09:45:47;13.63;;;5.85;;
74851;SDS011;63400;50.650;6.832;2023-11-21T09:48:13;14.43;;;5.28;;
74851;SDS011;63400;50.650;6.832;2023-11-21T09:50:41;13.68;;;5.47;;
74851;SDS011;63400;50.650;6.832;2023-11-21T09:55:40;19.05;;;6.13;;
74851;SDS011;63400;50.650;6.832;2023-11-21T09:58:09;16.33;;;5.63;;
74851;SDS011;63400;50.650;6.832;2023-11-21T10:00:37;15.75;;;4.93;;
74851;SDS011;63400;50.650;6.832;2023-11-21T10:03:11;18.30;;;5.03;;
74851;SDS011;63400;50.650;6.832;2023-11-21T10:05:38;18.38;;;5.47;;
74851;SDS011;63400;50.650;6.832;2023-11-21T10:08:06;14.63;;;5.00;;
74851;SDS011;63400;50.650;6.832;2023-11-21T10:10:32;16.42;;;5.10;;
74851;SDS011;63400;50.650;6.832;2023-11-21T10:12:59;15.07;;;5.28;;
74851;SDS011;63400;50.650;6.832;2023-11-21T10:15:28;15.55;;;5.40;;
74851;SDS011;63400;50.650;6.832;2023-11-21T10:17:54;14.43;;;4.80;;
74851;SDS011;63400;50.650;6.832;2023-11-21T10:20:20;15.55;;;5.10;;
74851;SDS011;63400;50.650;6.832;2023-11-21T10:22:46;14.05;;;5.20;;
74851;SDS011;63400;50.650;6.832;2023-11-21T10:25:12;15.85;;;5.38;;
74851;SDS011;63400;50.650;6.832;2023-11-21T10:27:39;13.40;;;4.95;;
74851;SDS011;63400;50.650;6.832;2023-11-21T10:30:09;12.13;;;4.72;;
74851;SDS011;63400;50.650;6.832;2023-11-21T10:32:37;17.10;;;4.95;;
74851;SDS011;63400;50.650;6.832;2023-11-21T10:35:03;13.88;;;4.30;;
74851;SDS011;63400;50.650;6.832;2023-11-21T10:37:35;17.02;;;4.70;;
74851;SDS011;63400;50.650;6.832;2023-11-21T10:40:08;14.52;;;5.10;;
74851;SDS011;63400;50.650;6.832;2023-11-21T10:42:40;13.35;;;5.07;;
74851;SDS011;63400;50.650;6.832;2023-11-21T10:45:07;15.95;;;5.25;;
74851;SDS011;63400;50.650;6.832;2023-11-21T10:47:40;18.73;;;5.63;;
74851;SDS011;63400;50.650;6.832;2023-11-21T10:50:06;15.00;;;5.00;;
74851;SDS011;63400;50.650;6.832;2023-11-21T10:52:36;12.93;;;4.88;;
74851;SDS011;63400;50.650;6.832;2023-11-21T10:55:18;15.38;;;5.55;;
74851;SDS011;63400;50.650;6.832;2023-11-21T10:57:51;17.67;;;5.75;;
74851;SDS011;63400;50.650;6.832;2023-11-21T11:00:18;12.88;;;4.38;;
74851;SDS011;63400;50.650;6.832;2023-11-21T11:02:50;16.42;;;5.00;;
74851;SDS011;63400;50.650;6.832;2023-11-21T11:05:19;16.05;;;5.93;;
74851;SDS011;63400;50.650;6.832;2023-11-21T11:07:44;14.93;;;4.95;;
74851;SDS011;63400;50.650;6.832;2023-11-21T11:10:13;13.68;;;5.13;;
74851;SDS011;63400;50.650;6.832;2023-11-21T11:12:41;12.75;;;4.60;;
74851;SDS011;63400;50.650;6.832;2023-11-21T11:17:34;15.35;;;5.15;;
74851;SDS011;63400;50.650;6.832;2023-11-21T11:20:03;17.55;;;5.10;;
74851;SDS011;63400;50.650;6.832;2023-11-21T11:28:22;18.75;;;5.55;;
74851;SDS011;63400;50.650;6.832;2023-11-21T11:33:46;16.35;;;5.13;;
74851;SDS011;63400;50.650;6.832;2023-11-21T11:38:52;14.25;;;5.13;;
74851;SDS011;63400;50.650;6.832;2023-11-21T11:41:24;17.45;;;5.35;;
74851;SDS011;63400;50.650;6.832;2023-11-21T11:43:51;20.95;;;6.28;;
74851;SDS011;63400;50.650;6.832;2023-11-21T11:46:18;15.35;;;5.40;;
74851;SDS011;63400;50.650;6.832;2023-11-21T11:48:46;17.27;;;5.65;;
74851;SDS011;63400;50.650;6.832;2023-11-21T11:51:13;18.35;;;5.93;;
74851;SDS011;63400;50.650;6.832;2023-11-21T11:53:43;19.85;;;6.28;;
74851;SDS011;63400;50.650;6.832;2023-11-21T11:56:29;19.00;;;6.13;;
74851;SDS011;63400;50.650;6.832;2023-11-21T11:59:01;18.25;;;5.95;;
74851;SDS011;63400;50.650;6.832;2023-11-21T12:01:28;18.00;;;5.70;;
74851;SDS011;63400;50.650;6.832;2023-11-21T12:06:51;15.35;;;4.78;;
74851;SDS011;63400;50.650;6.832;2023-11-21T12:09:18;15.50;;;4.95;;
74851;SDS011;63400;50.650;6.832;2023-11-21T12:11:47;15.60;;;5.15;;
74851;SDS011;63400;50.650;6.832;2023-11-21T12:14:14;21.05;;;5.57;;
74851;SDS011;63400;50.650;6.832;2023-11-21T12:16:40;15.30;;;5.32;;
74851;SDS011;63400;50.650;6.832;2023-11-21T12:19:05;18.45;;;5.70;;
74851;SDS011;63400;50.650;6.832;2023-11-21T12:21:31;17.15;;;5.53;;
74851;SDS011;63400;50.650;6.832;2023-11-21T12:23:57;15.93;;;5.05;;
74851;SDS011;63400;50.650;6.832;2023-11-21T12:26:26;18.38;;;5.03;;
74851;SDS011;63400;50.650;6.832;2023-11-21T12:28:52;18.10;;;4.85;;
74851;SDS011;63400;50.650;6.832;2023-11-21T12:31:21;16.25;;;6.18;;
74851;SDS011;63400;50.650;6.832;2023-11-21T12:33:47;14.35;;;4.78;;
74851;SDS011;63400;50.650;6.832;2023-11-21T12:36:13;13.32;;;4.80;;
74851;SDS011;63400;50.650;6.832;2023-11-21T12:38:38;13.60;;;4.57;;
74851;SDS011;63400;50.650;6.832;2023-11-21T12:41:04;12.30;;;4.53;;
74851;SDS011;63400;50.650;6.832;2023-11-21T12:43:31;12.75;;;3.85;;
74851;SDS011;63400;50.650;6.832;2023-11-21T12:48:36;15.90;;;5.32;;
74851;SDS011;63400;50.650;6.832;2023-11-21T12:51:07;14.95;;;4.70;;
74851;SDS011;63400;50.650;6.832;2023-11-21T12:53:34;13.75;;;4.20;;
74851;SDS011;63400;50.650;6.832;2023-11-21T12:56:06;11.63;;;4.03;;
74851;SDS011;63400;50.650;6.832;2023-11-21T12:58:34;12.38;;;4.03;;
74851;SDS011;63400;50.650;6.832;2023-11-21T13:01:01;15.77;;;4.05;;
74851;SDS011;63400;50.650;6.832;2023-11-21T13:03:29;15.40;;;4.25;;
74851;SDS011;63400;50.650;6.832;2023-11-21T13:05:55;15.13;;;4.53;;
74851;SDS011;63400;50.650;6.832;2023-11-21T13:08:22;13.25;;;3.80;;
74851;SDS011;63400;50.650;6.832;2023-11-21T13:10:49;13.50;;;4.50;;
74851;SDS011;63400;50.650;6.832;2023-11-21T13:13:17;14.80;;;4.22;;
74851;SDS011;63400;50.650;6.832;2023-11-21T13:16:01;11.55;;;4.07;;
74851;SDS011;63400;50.650;6.832;2023-11-21T13:18:30;14.63;;;3.88;;
74851;SDS011;63400;50.650;6.832;2023-11-21T13:20:56;13.00;;;3.67;;
74851;SDS011;63400;50.650;6.832;2023-11-21T13:23:35;10.65;;;3.20;;
74851;SDS011;63400;50.650;6.832;2023-11-21T13:26:02;12.13;;;3.97;;
74851;SDS011;63400;50.650;6.832;2023-11-21T13:28:29;15.98;;;3.75;;
74851;SDS011;63400;50.650;6.832;2023-11-21T13:30:58;11.38;;;3.33;;
74851;SDS011;63400;50.650;6.832;2023-11-21T13:33:28;14.32;;;3.85;;
74851;SDS011;63400;50.650;6.832;2023-11-21T13:35:54;16.27;;;4.43;;
74851;SDS011;63400;50.650;6.832;2023-11-21T13:38:21;12.57;;;4.22;;
74851;SDS011;63400;50.650;6.832;2023-11-21T13:40:50;15.73;;;4.57;;
74851;SDS011;63400;50.650;6.832;2023-11-21T13:43:18;12.70;;;3.60;;
74851;SDS011;63400;50.650;6.832;2023-11-21T13:45:47;16.38;;;4.43;;
74851;SDS011;63400;50.650;6.832;2023-11-21T13:48:16;13.73;;;4.40;;
74851;SDS011;63400;50.650;6.832;2023-11-21T13:50:50;14.30;;;3.78;;
74851;SDS011;63400;50.650;6.832;2023-11-21T13:55:52;14.77;;;3.90;;
74851;SDS011;63400;50.650;6.832;2023-11-21T13:58:25;16.83;;;3.97;;
74851;SDS011;63400;50.650;6.832;2023-11-21T14:01:10;16.33;;;4.38;;
74851;SDS011;63400;50.650;6.832;2023-11-21T14:03:59;15.50;;;4.25;;
74851;SDS011;63400;50.650;6.832;2023-11-21T14:06:38;17.52;;;5.03;;
74851;SDS011;63400;50.650;6.832;2023-11-21T14:09:23;15.85;;;4.03;;
74851;SDS011;63400;50.650;6.832;2023-11-21T14:11:58;13.88;;;3.88;;
74851;SDS011;63400;50.650;6.832;2023-11-21T14:14:25;15.10;;;4.80;;
74851;SDS011;63400;50.650;6.832;2023-11-21T14:16:53;16.45;;;4.85;;
74851;SDS011;63400;50.650;6.832;2023-11-21T14:19:20;20.58;;;5.47;;
74851;SDS011;63400;50.650;6.832;2023-11-21T14:21:46;16.30;;;5.30;;
74851;SDS011;63400;50.650;6.832;2023-11-21T14:24:13;15.00;;;4.55;;
74851;SDS011;63400;50.650;6.832;2023-11-21T14:26:43;19.08;;;5.22;;
74851;SDS011;63400;50.650;6.832;2023-11-21T14:29:13;13.75;;;4.35;;
74851;SDS011;63400;50.650;6.832;2023-11-21T14:31:41;19.20;;;5.22;;
74851;SDS011;63400;50.650;6.832;2023-11-21T14:34:08;14.10;;;4.60;;
74851;SDS011;63400;50.650;6.832;2023-11-21T14:36:34;15.80;;;4.35;;
74851;SDS011;63400;50.650;6.832;2023-11-21T14:41:28;11.02;;;3.88;;
74851;SDS011;63400;50.650;6.832;2023-11-21T14:43:54;14.35;;;4.10;;
74851;SDS011;63400;50.650;6.832;2023-11-21T14:46:21;15.15;;;4.68;;
74851;SDS011;63400;50.650;6.832;2023-11-21T14:48:46;13.82;;;3.95;;
74851;SDS011;63400;50.650;6.832;2023-11-21T14:51:23;15.18;;;4.97;;
74851;SDS011;63400;50.650;6.832;2023-11-21T14:53:50;15.65;;;4.60;;
74851;SDS011;63400;50.650;6.832;2023-11-21T14:56:21;14.65;;;4.22;;
74851;SDS011;63400;50.650;6.832;2023-11-21T14:58:56;15.32;;;5.13;;
74851;SDS011;63400;50.650;6.832;2023-11-21T15:01:23;16.27;;;4.97;;
74851;SDS011;63400;50.650;6.832;2023-11-21T15:04:21;14.55;;;4.32;;
74851;SDS011;63400;50.650;6.832;2023-11-21T15:07:04;10.98;;;4.13;;
74851;SDS011;63400;50.650;6.832;2023-11-21T15:09:32;13.48;;;4.47;;